Ashern, Canada
Current Conditions -  °F | °C
As of 4:00 PM on Tuesday 21 Oct 2014 (Local Time) from CYDN Reporting Station
Clear Clear  
Wind Chill: 18°   Ceiling: Unl
Heat Index: 18°   Visibility: 9mi
Dew Point:   Wind: 15mph
Humidity: 49%   Direction: 110°ESE
Pressure: 29.67"   Gusts: NA
Location:  51.18°N, 98.33°W
Report Text: CYDN 212100Z AUTO 11013KT 9SM CLR 18/07 A2967 RMK SLP056 DENSITY ALT 1800FT
Loading
Personal Weather Stations






























Interactive Weather Map
Tropical Storm Tracking
New forecast layout! Learn more

10-Day Weather Forecast

Advertisements
Track Severe Weather on mobile